Time;durP1;ratioP1;P1;durP2;ratioP2;P2;SDS_P1;SDS_P2;PMS_P1;PMS_P2;Temp;Humidity;BMP_temperature;BMP_pressure;BME280_temperature;BME280_humidity;BME280_pressure;Samples;Min_cycle;Max_cycle;Signal;HPM_P1;HPM_P2
2024/01/28 00:00:47;;;;;;;20.23;5.55;;;;;;;;;;5049157;28;20053;-72
2024/01/28 00:03:14;;;;;;;16.20;4.32;;;;;;;;;;5050982;28;20447;-73
2024/01/28 00:05:41;;;;;;;22.05;6.10;;;;;;;;;;5056148;28;20131;-72
2024/01/28 00:08:07;;;;;;;25.92;6.65;;;;;;;;;;5052536;28;20048;-74
2024/01/28 00:10:34;;;;;;;17.02;5.70;;;;;;;;;;5052242;28;20504;-72
2024/01/28 00:13:00;;;;;;;18.50;5.35;;;;;;;;;;5070192;28;20045;-74
2024/01/28 00:15:26;;;;;;;21.67;6.40;;;;;;;;;;5069958;28;20700;-73
2024/01/28 00:17:53;;;;;;;24.50;6.18;;;;;;;;;;5071017;28;20055;-71
2024/01/28 00:20:20;;;;;;;23.42;5.22;;;;;;;;;;5072340;28;20047;-73
2024/01/28 00:22:47;;;;;;;19.98;6.50;;;;;;;;;;5070530;28;20053;-72
2024/01/28 00:25:13;;;;;;;29.23;6.05;;;;;;;;;;5070151;28;20041;-72
2024/01/28 00:27:40;;;;;;;16.17;5.57;;;;;;;;;;5070093;28;20041;-70
2024/01/28 00:30:08;;;;;;;22.67;6.68;;;;;;;;;;5052199;28;20159;-71
2024/01/28 00:32:35;;;;;;;22.65;6.38;;;;;;;;;;5069812;28;20048;-73
2024/01/28 00:35:03;;;;;;;22.27;5.75;;;;;;;;;;5069720;28;20451;-72
2024/01/28 00:37:30;;;;;;;28.40;6.53;;;;;;;;;;5069962;28;20044;-72
2024/01/28 00:39:56;;;;;;;25.88;7.03;;;;;;;;;;5070303;28;20080;-71
2024/01/28 00:42:23;;;;;;;14.70;7.18;;;;;;;;;;5052321;28;20745;-70
2024/01/28 00:44:50;;;;;;;17.50;6.07;;;;;;;;;;5070279;28;20139;-73
2024/01/28 00:47:16;;;;;;;20.33;5.88;;;;;;;;;;5069829;28;20052;-70
2024/01/28 00:49:43;;;;;;;25.08;7.00;;;;;;;;;;5068937;28;20048;-70
2024/01/28 00:52:09;;;;;;;22.33;5.97;;;;;;;;;;5050870;28;20055;-71
2024/01/28 00:54:37;;;;;;;25.02;6.38;;;;;;;;;;5069325;28;20135;-72
2024/01/28 00:57:03;;;;;;;25.45;6.13;;;;;;;;;;5069077;28;20253;-72
2024/01/28 00:59:30;;;;;;;20.52;6.30;;;;;;;;;;5069219;28;20702;-71
2024/01/28 01:01:56;;;;;;;18.85;5.75;;;;;;;;;;5051139;28;20698;-72
2024/01/28 01:04:23;;;;;;;23.10;6.78;;;;;;;;;;5069428;28;20122;-71
2024/01/28 01:06:49;;;;;;;23.05;5.97;;;;;;;;;;5068906;28;20119;-71
2024/01/28 01:09:16;;;;;;;20.10;5.68;;;;;;;;;;5051306;28;20056;-72
2024/01/28 01:11:43;;;;;;;18.05;4.95;;;;;;;;;;5069049;28;20040;-73
2024/01/28 01:14:10;;;;;;;26.85;6.30;;;;;;;;;;5068627;28;20610;-74
2024/01/28 01:16:36;;;;;;;17.40;6.70;;;;;;;;;;5067719;28;20121;-73
2024/01/28 01:19:03;;;;;;;19.08;5.22;;;;;;;;;;5068950;28;20051;-72
2024/01/28 01:21:29;;;;;;;26.08;5.82;;;;;;;;;;5068421;28;20091;-71
2024/01/28 01:23:56;;;;;;;19.15;5.55;;;;;;;;;;5064714;28;20040;-74
2024/01/28 01:26:22;;;;;;;15.35;5.22;;;;;;;;;;5069042;28;20049;-72
2024/01/28 01:28:49;;;;;;;20.13;5.55;;;;;;;;;;5068873;28;20045;-70
2024/01/28 01:31:16;;;;;;;30.38;6.10;;;;;;;;;;5050853;28;20381;-73
2024/01/28 01:33:42;;;;;;;20.33;5.88;;;;;;;;;;5068336;28;20846;-72
2024/01/28 01:36:09;;;;;;;16.73;5.07;;;;;;;;;;5068507;28;20040;-70
2024/01/28 01:38:36;;;;;;;24.42;6.43;;;;;;;;;;5068456;28;20049;-70
2024/01/28 01:41:03;;;;;;;25.17;6.57;;;;;;;;;;5068067;28;20052;-70
2024/01/28 01:43:30;;;;;;;19.17;5.07;;;;;;;;;;5068101;28;20200;-72
2024/01/28 01:45:57;;;;;;;19.30;5.75;;;;;;;;;;5068267;28;20489;-74
2024/01/28 01:48:23;;;;;;;23.13;5.75;;;;;;;;;;5068092;28;20481;-71
2024/01/28 01:50:50;;;;;;;15.77;5.43;;;;;;;;;;5059837;28;20060;-72
2024/01/28 01:53:17;;;;;;;20.60;5.60;;;;;;;;;;5058989;28;20075;-74
2024/01/28 01:55:44;;;;;;;19.63;5.22;;;;;;;;;;5068549;28;20041;-70
2024/01/28 01:58:10;;;;;;;19.20;6.70;;;;;;;;;;5067992;28;20044;-72
2024/01/28 02:00:37;;;;;;;26.60;6.00;;;;;;;;;;5068448;28;20056;-72
2024/01/28 02:03:04;;;;;;;23.25;6.97;;;;;;;;;;5067870;28;20102;-71
2024/01/28 02:05:30;;;;;;;25.27;5.78;;;;;;;;;;5066530;28;20041;-73
2024/01/28 02:07:57;;;;;;;19.40;6.22;;;;;;;;;;5066862;28;20634;-73
2024/01/28 02:10:25;;;;;;;19.95;5.53;;;;;;;;;;5049985;28;20040;-71
2024/01/28 02:12:52;;;;;;;25.08;6.78;;;;;;;;;;5067980;28;20059;-72
2024/01/28 02:15:19;;;;;;;24.13;6.85;;;;;;;;;;5068119;28;20571;-70
2024/01/28 02:17:45;;;;;;;22.13;7.47;;;;;;;;;;5067887;28;20040;-71
2024/01/28 02:20:12;;;;;;;22.48;6.40;;;;;;;;;;5068131;28;20052;-70
2024/01/28 02:22:38;;;;;;;18.42;7.25;;;;;;;;;;5070569;28;20116;-73
2024/01/28 02:25:06;;;;;;;20.65;6.30;;;;;;;;;;5072482;28;20037;-73
2024/01/28 02:27:34;;;;;;;30.05;7.20;;;;;;;;;;5067598;28;20058;-71
2024/01/28 02:30:00;;;;;;;34.03;7.80;;;;;;;;;;5067671;28;20048;-71
2024/01/28 02:32:26;;;;;;;27.65;11.65;;;;;;;;;;5049832;28;20051;-71
2024/01/28 02:34:53;;;;;;;48.80;15.73;;;;;;;;;;5067896;28;20528;-73
2024/01/28 02:37:20;;;;;;;41.63;15.02;;;;;;;;;;5050429;28;20109;-73
2024/01/28 02:39:46;;;;;;;55.25;22.13;;;;;;;;;;5068298;28;20657;-70
2024/01/28 02:42:13;;;;;;;49.30;20.20;;;;;;;;;;5069437;28;20045;-71
2024/01/28 02:44:39;;;;;;;32.85;9.85;;;;;;;;;;5065616;28;20063;-74
2024/01/28 02:47:06;;;;;;;26.45;8.10;;;;;;;;;;5049052;28;20485;-74
2024/01/28 02:49:32;;;;;;;25.35;8.77;;;;;;;;;;5067329;28;20045;-70
2024/01/28 02:51:59;;;;;;;26.45;8.38;;;;;;;;;;5049398;28;20152;-70
2024/01/28 02:54:25;;;;;;;17.30;7.85;;;;;;;;;;5066953;28;20052;-73
2024/01/28 02:56:52;;;;;;;31.98;9.25;;;;;;;;;;5066450;28;20109;-71
2024/01/28 02:59:18;;;;;;;22.35;8.18;;;;;;;;;;5067460;28;20057;-69
2024/01/28 03:01:46;;;;;;;24.88;7.68;;;;;;;;;;5065657;28;20057;-73
2024/01/28 03:04:13;;;;;;;27.73;7.18;;;;;;;;;;5066732;28;20049;-76
2024/01/28 03:06:41;;;;;;;30.20;9.25;;;;;;;;;;5067362;28;20163;-71
2024/01/28 03:09:08;;;;;;;35.42;8.40;;;;;;;;;;5066901;28;20106;-72
2024/01/28 03:11:35;;;;;;;34.65;8.23;;;;;;;;;;5066967;28;20122;-73
2024/01/28 03:14:02;;;;;;;28.25;8.75;;;;;;;;;;5065425;28;20541;-72
2024/01/28 03:16:28;;;;;;;25.15;8.35;;;;;;;;;;5048924;28;20059;-70
2024/01/28 03:18:54;;;;;;;23.90;9.38;;;;;;;;;;5066254;28;20076;-72
2024/01/28 03:21:21;;;;;;;18.15;7.45;;;;;;;;;;5066512;28;20055;-71
2024/01/28 03:23:47;;;;;;;21.05;6.25;;;;;;;;;;5066606;28;20051;-72
2024/01/28 03:26:14;;;;;;;22.33;6.75;;;;;;;;;;5064975;28;20076;-71
2024/01/28 03:28:41;;;;;;;35.28;7.22;;;;;;;;;;5065812;28;20060;-73
2024/01/28 03:31:08;;;;;;;20.83;7.00;;;;;;;;;;5048541;28;20048;-71
2024/01/28 03:33:34;;;;;;;20.48;7.32;;;;;;;;;;5066564;28;20133;-70
2024/01/28 03:36:01;;;;;;;21.30;6.85;;;;;;;;;;5066419;28;20416;-74
2024/01/28 03:38:27;;;;;;;30.00;7.03;;;;;;;;;;5065876;28;20098;-72
2024/01/28 03:40:54;;;;;;;20.27;7.10;;;;;;;;;;5049562;28;20060;-70
2024/01/28 03:43:20;;;;;;;16.88;6.68;;;;;;;;;;5066579;28;20048;-71
2024/01/28 03:45:46;;;;;;;24.23;6.32;;;;;;;;;;5066745;28;20156;-72
2024/01/28 03:48:13;;;;;;;30.60;7.95;;;;;;;;;;5066417;28;20557;-74
2024/01/28 03:50:40;;;;;;;30.00;7.05;;;;;;;;;;5066625;28;20712;-70
2024/01/28 03:53:06;;;;;;;34.17;8.60;;;;;;;;;;5066412;28;20094;-74
2024/01/28 03:55:33;;;;;;;16.75;6.45;;;;;;;;;;5066289;28;20497;-72
2024/01/28 03:57:59;;;;;;;25.45;8.38;;;;;;;;;;5065573;28;20665;-73
2024/01/28 04:00:28;;;;;;;16.25;6.72;;;;;;;;;;5066452;28;20051;-74
2024/01/28 04:03:00;;;;;;;29.75;7.63;;;;;;;;;;5066391;28;20521;-74
2024/01/28 04:05:27;;;;;;;27.35;8.00;;;;;;;;;;5066101;28;20059;-72
2024/01/28 04:07:53;;;;;;;15.25;6.25;;;;;;;;;;5064562;28;20103;-70
2024/01/28 04:10:20;;;;;;;24.42;7.20;;;;;;;;;;5046292;28;20053;-73
2024/01/28 04:12:46;;;;;;;33.53;7.20;;;;;;;;;;5046195;28;20529;-73
2024/01/28 04:15:13;;;;;;;41.50;7.90;;;;;;;;;;5046265;28;20053;-72
2024/01/28 04:17:39;;;;;;;24.10;6.63;;;;;;;;;;5046164;28;20196;-73
2024/01/28 04:20:08;;;;;;;24.42;6.90;;;;;;;;;;5046244;28;20052;-70
2024/01/28 04:22:35;;;;;;;31.73;7.43;;;;;;;;;;5046062;28;20053;-71
2024/01/28 04:25:01;;;;;;;23.80;8.43;;;;;;;;;;5028513;28;20460;-73
2024/01/28 04:27:28;;;;;;;20.95;6.50;;;;;;;;;;5059150;28;20159;-71
2024/01/28 04:29:55;;;;;;;24.95;7.50;;;;;;;;;;5066059;28;20072;-71
2024/01/28 04:32:21;;;;;;;30.92;6.43;;;;;;;;;;5068820;28;20052;-72
2024/01/28 04:34:48;;;;;;;27.95;7.93;;;;;;;;;;5069170;28;20056;-71
2024/01/28 04:37:14;;;;;;;27.55;8.57;;;;;;;;;;5069394;28;20153;-75
2024/01/28 04:39:41;;;;;;;34.03;7.68;;;;;;;;;;5069818;28;20044;-72
2024/01/28 04:42:07;;;;;;;25.70;7.70;;;;;;;;;;5069563;28;20630;-72
2024/01/28 04:44:34;;;;;;;21.98;6.90;;;;;;;;;;5069428;28;20062;-71
2024/01/28 04:47:01;;;;;;;21.27;7.55;;;;;;;;;;5069229;28;20044;-70
2024/01/28 04:49:27;;;;;;;20.75;6.93;;;;;;;;;;5051302;28;20052;-71
2024/01/28 04:51:54;;;;;;;20.55;7.43;;;;;;;;;;5069428;28;20041;-74
2024/01/28 04:54:22;;;;;;;35.95;8.80;;;;;;;;;;5069213;28;20459;-72
2024/01/28 04:56:49;;;;;;;18.25;5.60;;;;;;;;;;5068578;28;20048;-74
2024/01/28 04:59:15;;;;;;;31.42;7.53;;;;;;;;;;5068630;28;20056;-71
2024/01/28 05:01:43;;;;;;;25.17;7.53;;;;;;;;;;5051534;28;20075;-71
2024/01/28 05:04:09;;;;;;;29.08;7.78;;;;;;;;;;5068921;28;20181;-70
2024/01/28 05:06:36;;;;;;;25.83;8.25;;;;;;;;;;5068897;28;20044;-72
2024/01/28 05:09:03;;;;;;;22.88;7.93;;;;;;;;;;5068955;28;20076;-74
2024/01/28 05:11:31;;;;;;;18.73;7.18;;;;;;;;;;5069030;28;20052;-72
2024/01/28 05:14:00;;;;;;;26.35;7.35;;;;;;;;;;5069242;28;20136;-73
2024/01/28 05:16:27;;;;;;;21.95;7.18;;;;;;;;;;5050910;28;20045;-70
2024/01/28 05:18:53;;;;;;;26.05;7.38;;;;;;;;;;5068221;28;20405;-74
2024/01/28 05:21:20;;;;;;;21.45;7.80;;;;;;;;;;5068647;28;20068;-71
2024/01/28 05:23:46;;;;;;;32.08;9.40;;;;;;;;;;5068999;28;20045;-74
2024/01/28 05:26:13;;;;;;;20.30;6.93;;;;;;;;;;5051249;28;20071;-71
2024/01/28 05:28:40;;;;;;;25.67;8.35;;;;;;;;;;5038647;28;20044;-73
2024/01/28 05:31:07;;;;;;;19.55;8.38;;;;;;;;;;5062918;28;20080;-71
2024/01/28 05:33:37;;;;;;;23.13;7.07;;;;;;;;;;5050463;28;20053;-73
2024/01/28 05:36:11;;;;;;;31.77;7.97;;;;;;;;;;5068563;28;20485;-72
2024/01/28 05:38:37;;;;;;;24.80;9.13;;;;;;;;;;5068390;28;20087;-72
2024/01/28 05:41:04;;;;;;;15.48;7.10;;;;;;;;;;5067434;28;20564;-76
2024/01/28 05:43:31;;;;;;;32.83;7.97;;;;;;;;;;5068729;28;20056;-71
2024/01/28 05:45:57;;;;;;;21.98;8.30;;;;;;;;;;5068919;28;20044;-70
2024/01/28 05:48:24;;;;;;;21.02;8.85;;;;;;;;;;5068563;28;20108;-74
2024/01/28 05:50:50;;;;;;;23.70;7.82;;;;;;;;;;5050602;28;20055;-72
2024/01/28 05:53:17;;;;;;;30.80;7.63;;;;;;;;;;5067822;28;20053;-71
2024/01/28 05:55:43;;;;;;;19.17;7.32;;;;;;;;;;5068549;28;20132;-73
2024/01/28 05:58:10;;;;;;;17.25;7.40;;;;;;;;;;5063656;28;20044;-71
2024/01/28 06:00:36;;;;;;;20.88;7.80;;;;;;;;;;5068122;28;20718;-72
2024/01/28 06:03:06;;;;;;;17.27;7.07;;;;;;;;;;5049995;28;20044;-73
2024/01/28 06:05:32;;;;;;;22.42;7.63;;;;;;;;;;5068208;28;20044;-71
2024/01/28 06:08:02;;;;;;;24.23;7.85;;;;;;;;;;5069015;28;20113;-72
2024/01/28 06:10:28;;;;;;;36.45;7.43;;;;;;;;;;5069129;28;20135;-69
2024/01/28 06:12:54;;;;;;;20.55;7.05;;;;;;;;;;5068014;28;20443;-76
2024/01/28 06:15:21;;;;;;;26.65;6.88;;;;;;;;;;5068206;28;20505;-72
2024/01/28 06:17:48;;;;;;;19.13;7.65;;;;;;;;;;5068101;28;20095;-72
2024/01/28 06:20:15;;;;;;;16.83;6.85;;;;;;;;;;5068035;28;20044;-75
2024/01/28 06:22:41;;;;;;;25.30;7.90;;;;;;;;;;5067973;28;20041;-71
2024/01/28 06:25:08;;;;;;;22.27;7.57;;;;;;;;;;5067653;28;20080;-73
2024/01/28 06:27:34;;;;;;;27.17;7.45;;;;;;;;;;5067476;28;20048;-73
2024/01/28 06:30:01;;;;;;;21.63;6.88;;;;;;;;;;5066698;28;20052;-75
2024/01/28 06:32:27;;;;;;;32.80;8.68;;;;;;;;;;5068082;28;20053;-73
2024/01/28 06:34:54;;;;;;;29.02;8.93;;;;;;;;;;5067833;28;20055;-73
2024/01/28 06:37:21;;;;;;;30.23;9.43;;;;;;;;;;5067418;28;20489;-73
2024/01/28 06:39:51;;;;;;;26.20;8.65;;;;;;;;;;5067674;28;20151;-71
2024/01/28 06:42:18;;;;;;;18.65;8.02;;;;;;;;;;5067726;28;20045;-74
2024/01/28 06:44:45;;;;;;;28.77;9.07;;;;;;;;;;5068167;28;20055;-71
2024/01/28 06:47:11;;;;;;;30.35;8.02;;;;;;;;;;5067893;28;20516;-75
2024/01/28 06:49:37;;;;;;;33.47;9.60;;;;;;;;;;5067436;28;20072;-74
2024/01/28 06:52:04;;;;;;;23.30;8.48;;;;;;;;;;5067781;28;20135;-71
2024/01/28 06:54:31;;;;;;;22.35;7.78;;;;;;;;;;5048480;28;20041;-72
2024/01/28 06:56:57;;;;;;;24.02;8.38;;;;;;;;;;5047000;28;20049;-71
2024/01/28 06:59:24;;;;;;;27.42;8.15;;;;;;;;;;5039197;28;20048;-75
2024/01/28 07:01:50;;;;;;;24.25;8.30;;;;;;;;;;5068243;28;20056;-72
2024/01/28 07:04:17;;;;;;;39.15;9.18;;;;;;;;;;5069030;28;20052;-72
2024/01/28 07:06:43;;;;;;;21.77;8.15;;;;;;;;;;5050780;28;20044;-73
2024/01/28 07:09:12;;;;;;;30.58;9.60;;;;;;;;;;5068041;28;20051;-74
2024/01/28 07:11:38;;;;;;;25.95;9.13;;;;;;;;;;5068158;28;20056;-74
2024/01/28 07:14:05;;;;;;;23.48;8.80;;;;;;;;;;5068055;28;20056;-71
2024/01/28 07:16:32;;;;;;;28.05;7.97;;;;;;;;;;5068299;28;20102;-71
2024/01/28 07:18:58;;;;;;;19.33;8.38;;;;;;;;;;5069149;28;20052;-74
2024/01/28 07:21:25;;;;;;;27.55;8.55;;;;;;;;;;5054182;28;20055;-72
2024/01/28 07:23:52;;;;;;;31.60;9.63;;;;;;;;;;5030271;28;20604;-75
2024/01/28 07:26:18;;;;;;;27.85;10.07;;;;;;;;;;5047741;28;20119;-73
2024/01/28 07:28:45;;;;;;;34.08;9.73;;;;;;;;;;5047914;28;20053;-75
2024/01/28 07:31:12;;;;;;;21.00;10.23;;;;;;;;;;5064113;28;20116;-71
2024/01/28 07:33:38;;;;;;;24.88;9.20;;;;;;;;;;5067140;28;20649;-73
2024/01/28 07:36:05;;;;;;;34.65;11.27;;;;;;;;;;5066455;28;20139;-72
2024/01/28 07:38:32;;;;;;;42.30;11.30;;;;;;;;;;5066681;28;20488;-72
2024/01/28 07:40:59;;;;;;;35.00;11.48;;;;;;;;;;5065595;28;20098;-71
2024/01/28 07:43:25;;;;;;;35.72;12.95;;;;;;;;;;5066692;28;20048;-73
2024/01/28 07:45:51;;;;;;;35.13;11.57;;;;;;;;;;5066700;28;20045;-73
2024/01/28 07:48:18;;;;;;;35.10;12.43;;;;;;;;;;5062203;28;20132;-71
2024/01/28 07:50:45;;;;;;;34.70;12.25;;;;;;;;;;5046925;28;20045;-75
2024/01/28 07:53:12;;;;;;;29.48;13.98;;;;;;;;;;5046398;28;20296;-74
2024/01/28 07:55:38;;;;;;;38.80;13.68;;;;;;;;;;5046607;28;20053;-73
2024/01/28 07:58:05;;;;;;;51.70;14.68;;;;;;;;;;5046448;28;20462;-72
2024/01/28 08:00:31;;;;;;;38.20;13.85;;;;;;;;;;5056704;28;20136;-75
2024/01/28 08:02:57;;;;;;;29.80;12.40;;;;;;;;;;5065563;28;20056;-73
2024/01/28 08:05:25;;;;;;;37.40;11.80;;;;;;;;;;5066544;28;20677;-71
2024/01/28 08:07:52;;;;;;;36.50;13.77;;;;;;;;;;5069931;28;20052;-75
2024/01/28 08:10:18;;;;;;;34.70;13.85;;;;;;;;;;5070237;28;20040;-71
2024/01/28 08:12:45;;;;;;;35.15;13.38;;;;;;;;;;5069951;28;20044;-73
2024/01/28 08:15:11;;;;;;;33.70;12.38;;;;;;;;;;5070093;28;20092;-71
2024/01/28 08:17:38;;;;;;;49.38;14.15;;;;;;;;;;5051865;28;20132;-75
2024/01/28 08:20:05;;;;;;;40.40;13.48;;;;;;;;;;5069609;28;20098;-72
2024/01/28 08:22:31;;;;;;;34.28;12.23;;;;;;;;;;5051883;28;20497;-74
2024/01/28 08:24:58;;;;;;;49.92;15.00;;;;;;;;;;5069965;28;20098;-73
2024/01/28 08:27:24;;;;;;;30.20;12.55;;;;;;;;;;5068594;28;20041;-72
2024/01/28 08:29:51;;;;;;;31.20;14.50;;;;;;;;;;5069827;28;20044;-71
2024/01/28 08:32:19;;;;;;;35.28;13.57;;;;;;;;;;5068288;28;20051;-73
2024/01/28 08:34:48;;;;;;;35.05;13.95;;;;;;;;;;5069655;28;20525;-71
2024/01/28 08:37:15;;;;;;;37.78;14.05;;;;;;;;;;5069260;28;20052;-71
2024/01/28 08:39:42;;;;;;;33.03;13.93;;;;;;;;;;5069992;28;20586;-71
2024/01/28 08:42:08;;;;;;;32.35;14.15;;;;;;;;;;5069535;28;20079;-71
2024/01/28 08:44:35;;;;;;;34.47;15.23;;;;;;;;;;5069651;28;20045;-70
2024/01/28 08:47:03;;;;;;;37.63;14.82;;;;;;;;;;5051838;28;20684;-72
2024/01/28 08:49:30;;;;;;;42.50;15.27;;;;;;;;;;5069308;28;20576;-70
2024/01/28 08:51:56;;;;;;;33.67;13.02;;;;;;;;;;5051643;28;20059;-73
2024/01/28 08:54:24;;;;;;;39.97;15.10;;;;;;;;;;5051423;28;20181;-72
2024/01/28 08:56:50;;;;;;;42.42;15.52;;;;;;;;;;5069424;28;20079;-74
2024/01/28 08:59:17;;;;;;;32.40;14.65;;;;;;;;;;5069299;28;20056;-71
2024/01/28 09:01:44;;;;;;;32.90;14.10;;;;;;;;;;5069448;28;20684;-71
2024/01/28 09:04:11;;;;;;;36.47;13.98;;;;;;;;;;5067870;28;20718;-70
2024/01/28 09:06:37;;;;;;;29.60;13.85;;;;;;;;;;5069008;28;20094;-72
2024/01/28 09:09:08;;;;;;;39.78;14.73;;;;;;;;;;5069106;28;20074;-72
2024/01/28 09:11:35;;;;;;;38.95;15.63;;;;;;;;;;5068731;28;20427;-73
2024/01/28 09:14:02;;;;;;;43.53;14.35;;;;;;;;;;5068714;28;20102;-72
2024/01/28 09:16:28;;;;;;;37.20;16.38;;;;;;;;;;5069153;28;20052;-70
2024/01/28 09:18:55;;;;;;;35.80;14.98;;;;;;;;;;5069009;28;20428;-73
2024/01/28 09:21:21;;;;;;;42.42;15.73;;;;;;;;;;5068674;28;20056;-72
2024/01/28 09:23:48;;;;;;;29.85;13.10;;;;;;;;;;5068999;28;20063;-71
2024/01/28 09:26:14;;;;;;;38.35;14.23;;;;;;;;;;5069106;28;20779;-72
2024/01/28 09:28:40;;;;;;;32.38;14.55;;;;;;;;;;5068546;28;20049;-74
2024/01/28 09:31:07;;;;;;;33.28;12.18;;;;;;;;;;5068705;28;20629;-71
2024/01/28 09:33:34;;;;;;;36.95;13.05;;;;;;;;;;5067442;28;20051;-72
2024/01/28 09:36:01;;;;;;;29.67;13.40;;;;;;;;;;5068494;28;20049;-71
2024/01/28 09:38:28;;;;;;;32.67;12.15;;;;;;;;;;5061670;28;20049;-72
2024/01/28 09:40:54;;;;;;;36.67;13.02;;;;;;;;;;5048345;28;20053;-70
2024/01/28 09:43:28;;;;;;;39.70;13.88;;;;;;;;;;5047999;28;20057;-70
2024/01/28 09:45:55;;;;;;;24.40;12.60;;;;;;;;;;5048576;28;20045;-73
2024/01/28 09:48:22;;;;;;;26.48;12.13;;;;;;;;;;5055380;28;20055;-71
2024/01/28 09:50:48;;;;;;;26.45;12.88;;;;;;;;;;5050595;28;20048;-71
2024/01/28 09:53:15;;;;;;;34.53;11.30;;;;;;;;;;5068944;28;20055;-70
2024/01/28 09:55:41;;;;;;;37.92;12.10;;;;;;;;;;5050176;28;20044;-73
2024/01/28 09:58:08;;;;;;;32.58;11.23;;;;;;;;;;5050590;28;20176;-73
2024/01/28 10:00:37;;;;;;;39.28;13.73;;;;;;;;;;5068425;28;20048;-72
2024/01/28 10:03:04;;;;;;;28.40;11.23;;;;;;;;;;5067496;28;20139;-71
2024/01/28 10:05:30;;;;;;;26.73;11.63;;;;;;;;;;5048229;28;20120;-72
2024/01/28 10:08:04;;;;;;;26.00;9.82;;;;;;;;;;5068357;28;20048;-70
2024/01/28 10:10:35;;;;;;;23.08;10.55;;;;;;;;;;5050531;28;20051;-70
2024/01/28 10:13:04;;;;;;;22.63;9.95;;;;;;;;;;5068015;28;20079;-72
2024/01/28 10:15:31;;;;;;;24.25;10.25;;;;;;;;;;5050840;28;20427;-71
2024/01/28 10:17:58;;;;;;;29.90;9.23;;;;;;;;;;5050901;28;20049;-70
2024/01/28 10:20:26;;;;;;;33.80;9.25;;;;;;;;;;5049979;28;20049;-70
2024/01/28 10:22:53;;;;;;;25.13;10.35;;;;;;;;;;5068094;28;20052;-70
2024/01/28 10:25:20;;;;;;;19.13;8.43;;;;;;;;;;5067666;28;20045;-70
2024/01/28 10:27:47;;;;;;;25.33;9.60;;;;;;;;;;5050000;28;20080;-70
2024/01/28 10:30:14;;;;;;;22.85;8.07;;;;;;;;;;5049143;28;20105;-69
2024/01/28 10:32:41;;;;;;;21.33;8.32;;;;;;;;;;5067329;28;20063;-73
2024/01/28 10:35:12;;;;;;;28.35;9.73;;;;;;;;;;5045622;28;20060;-72
2024/01/28 10:37:39;;;;;;;16.55;8.60;;;;;;;;;;5049954;28;20117;-74
2024/01/28 10:40:07;;;;;;;22.40;8.73;;;;;;;;;;5067114;28;20451;-72
2024/01/28 10:42:38;;;;;;;20.33;8.60;;;;;;;;;;5067174;28;20084;-70
2024/01/28 10:45:08;;;;;;;19.67;7.88;;;;;;;;;;5067269;28;20485;-70
2024/01/28 10:47:36;;;;;;;16.80;6.88;;;;;;;;;;5066969;28;20047;-72
2024/01/28 10:50:09;;;;;;;19.92;8.63;;;;;;;;;;5067434;28;20615;-73
2024/01/28 10:52:39;;;;;;;24.30;7.50;;;;;;;;;;5067284;28;20056;-69
2024/01/28 10:55:06;;;;;;;20.02;7.32;;;;;;;;;;5066939;28;20093;-70
2024/01/28 10:57:33;;;;;;;20.92;7.20;;;;;;;;;;5068039;28;20052;-69
2024/01/28 11:00:00;;;;;;;23.70;6.85;;;;;;;;;;5066178;28;20051;-72
2024/01/28 11:02:27;;;;;;;16.15;6.95;;;;;;;;;;5067265;28;20060;-71
2024/01/28 11:04:58;;;;;;;;;;;;;;;;;;5066322;28;20053;-71
2024/01/28 11:07:24;;;;;;;20.70;7.82;;;;;;;;;;5065723;28;19920;-71
2024/01/28 11:09:52;;;;;;;14.82;6.10;;;;;;;;;;5066659;28;20048;-69
2024/01/28 11:12:20;;;;;;;21.95;7.50;;;;;;;;;;5066896;28;20148;-72
2024/01/28 11:14:46;;;;;;;17.88;6.47;;;;;;;;;;5049229;28;20041;-71
2024/01/28 11:17:13;;;;;;;19.55;7.55;;;;;;;;;;5049190;28;20475;-71
2024/01/28 11:19:39;;;;;;;19.52;5.75;;;;;;;;;;5067039;28;20075;-70
2024/01/28 11:22:12;;;;;;;14.43;5.72;;;;;;;;;;5066978;28;20052;-72
2024/01/28 11:24:46;;;;;;;17.25;5.22;;;;;;;;;;5066464;28;20117;-70
2024/01/28 11:27:13;;;;;;;18.83;6.20;;;;;;;;;;5064486;28;20060;-72
2024/01/28 11:29:40;;;;;;;19.00;5.85;;;;;;;;;;5046832;28;20061;-73
2024/01/28 11:32:07;;;;;;;22.60;5.22;;;;;;;;;;5046653;28;20084;-74
2024/01/28 11:34:35;;;;;;;18.48;5.82;;;;;;;;;;5048865;28;20060;-70
2024/01/28 11:37:04;;;;;;;16.05;4.90;;;;;;;;;;5065622;28;20048;-71
2024/01/28 11:39:45;;;;;;;18.08;4.53;;;;;;;;;;5066631;28;20048;-74
2024/01/28 11:42:13;;;;;;;21.25;6.18;;;;;;;;;;5069988;28;20595;-72
2024/01/28 11:44:40;;;;;;;16.13;6.32;;;;;;;;;;5070513;28;20051;-72
2024/01/28 11:47:10;;;;;;;15.35;4.82;;;;;;;;;;5070658;28;20040;-73
2024/01/28 11:49:36;;;;;;;18.15;4.85;;;;;;;;;;5070772;28;20539;-76
2024/01/28 11:52:05;;;;;;;12.05;4.22;;;;;;;;;;5070235;28;20629;-73
2024/01/28 11:54:32;;;;;;;20.08;5.40;;;;;;;;;;5070673;28;20616;-72
2024/01/28 11:57:00;;;;;;;18.63;5.80;;;;;;;;;;5034050;28;20071;-73
2024/01/28 11:59:26;;;;;;;12.55;5.00;;;;;;;;;;5050441;28;20041;-72
2024/01/28 12:01:53;;;;;;;13.55;4.55;;;;;;;;;;5050376;28;20114;-74
2024/01/28 12:04:19;;;;;;;16.35;5.13;;;;;;;;;;5050047;28;20049;-73
2024/01/28 12:06:46;;;;;;;11.23;3.83;;;;;;;;;;5065475;28;20045;-71
2024/01/28 12:09:13;;;;;;;19.50;5.10;;;;;;;;;;5052311;28;20094;-72
2024/01/28 12:11:39;;;;;;;13.25;5.03;;;;;;;;;;5069733;28;20135;-72
2024/01/28 12:14:07;;;;;;;17.27;4.93;;;;;;;;;;5069986;28;20540;-72
2024/01/28 12:16:34;;;;;;;22.80;4.60;;;;;;;;;;5069877;28;20136;-75
2024/01/28 12:19:01;;;;;;;17.45;4.25;;;;;;;;;;5068460;28;20056;-79
2024/01/28 12:21:27;;;;;;;11.45;4.03;;;;;;;;;;5066412;28;20447;-74
2024/01/28 12:24:04;;;;;;;22.88;5.13;;;;;;;;;;5061293;28;20660;-73
2024/01/28 12:26:34;;;;;;;15.32;3.53;;;;;;;;;;5072751;28;20806;-74
2024/01/28 12:29:02;;;;;;;12.35;4.25;;;;;;;;;;5073862;28;20059;-76
2024/01/28 12:31:30;;;;;;;14.05;3.17;;;;;;;;;;5080422;28;20184;-71
2024/01/28 12:34:00;;;;;;;16.17;4.30;;;;;;;;;;5056914;28;20040;-82
2024/01/28 12:36:26;;;;;;;17.48;3.78;;;;;;;;;;5066170;28;20485;-72
2024/01/28 12:38:53;;;;;;;16.95;4.63;;;;;;;;;;5074898;28;20052;-75
2024/01/28 12:41:19;;;;;;;13.18;2.95;;;;;;;;;;5069333;28;20619;-71
2024/01/28 12:43:48;;;;;;;12.23;3.03;;;;;;;;;;5072350;28;20064;-80
2024/01/28 12:46:18;;;;;;;18.60;3.80;;;;;;;;;;5065127;28;20055;-71
2024/01/28 12:48:45;;;;;;;10.00;3.40;;;;;;;;;;5067479;28;20409;-69
2024/01/28 12:51:12;;;;;;;13.45;4.00;;;;;;;;;;5038029;28;20131;-78
2024/01/28 12:53:39;;;;;;;11.18;2.70;;;;;;;;;;5046596;28;20596;-72
2024/01/28 12:56:06;;;;;;;11.68;3.33;;;;;;;;;;5044466;28;20452;-71
2024/01/28 12:58:32;;;;;;;16.95;2.95;;;;;;;;;;5068643;28;20058;-69
2024/01/28 13:00:59;;;;;;;9.00;3.05;;;;;;;;;;5076649;28;20127;-68
2024/01/28 13:03:26;;;;;;;7.78;2.15;;;;;;;;;;5073993;28;20043;-69
2024/01/28 13:05:52;;;;;;;14.20;2.55;;;;;;;;;;5065895;28;20053;-74
2024/01/28 13:08:18;;;;;;;12.23;3.05;;;;;;;;;;5062113;28;20446;-73
2024/01/28 13:10:45;;;;;;;13.60;3.30;;;;;;;;;;5068812;28;20567;-73
2024/01/28 13:13:11;;;;;;;15.10;2.75;;;;;;;;;;5066133;28;20167;-76
2024/01/28 13:15:38;;;;;;;11.48;2.75;;;;;;;;;;5076897;28;20048;-73
2024/01/28 13:18:04;;;;;;;10.75;3.22;;;;;;;;;;5050097;28;20080;-72
2024/01/28 13:20:50;;;;;;;11.18;2.85;;;;;;;;;;5069226;28;20048;-72
2024/01/28 13:23:17;;;;;;;15.02;2.80;;;;;;;;;;5077429;28;20040;-73
2024/01/28 13:25:43;;;;;;;9.75;2.60;;;;;;;;;;5067308;28;20044;-71
2024/01/28 13:28:10;;;;;;;9.88;2.28;;;;;;;;;;5063526;28;20137;-71
2024/01/28 13:30:37;;;;;;;8.57;2.58;;;;;;;;;;5064899;28;20056;-72
2024/01/28 13:33:03;;;;;;;6.23;1.93;;;;;;;;;;5041153;28;1090527;-76
2024/01/28 13:35:32;;;;;;;8.75;2.45;;;;;;;;;;5067564;28;20280;-74
2024/01/28 13:37:59;;;;;;;8.20;2.42;;;;;;;;;;5065035;28;20072;-74
2024/01/28 13:40:25;;;;;;;8.40;1.90;;;;;;;;;;5046353;28;20820;-75
2024/01/28 13:42:52;;;;;;;10.50;2.45;;;;;;;;;;5032486;28;20143;-73
2024/01/28 13:45:18;;;;;;;10.18;2.67;;;;;;;;;;5064911;28;20048;-74
2024/01/28 13:47:45;;;;;;;12.02;2.38;;;;;;;;;;5047865;28;20055;-73
2024/01/28 13:50:11;;;;;;;11.57;2.50;;;;;;;;;;5055158;28;20048;-75
2024/01/28 13:52:38;;;;;;;9.90;2.83;;;;;;;;;;5066774;28;20137;-74
2024/01/28 13:55:05;;;;;;;9.00;3.17;;;;;;;;;;5066637;28;20041;-77
2024/01/28 13:57:31;;;;;;;13.52;2.60;;;;;;;;;;5064745;28;20052;-76
2024/01/28 13:59:58;;;;;;;16.65;3.08;;;;;;;;;;5072416;28;20055;-74
2024/01/28 14:02:24;;;;;;;9.25;2.80;;;;;;;;;;5075276;28;20653;-72
2024/01/28 14:04:50;;;;;;;9.20;3.17;;;;;;;;;;5075690;28;20136;-74
2024/01/28 14:07:17;;;;;;;7.95;2.88;;;;;;;;;;5046255;28;20045;-72
2024/01/28 14:09:43;;;;;;;8.23;2.72;;;;;;;;;;5064446;28;20049;-71
2024/01/28 14:12:11;;;;;;;10.23;2.80;;;;;;;;;;5054746;28;20036;-71
2024/01/28 14:14:38;;;;;;;7.93;2.47;;;;;;;;;;5068045;28;20052;-74
2024/01/28 14:17:05;;;;;;;11.13;2.17;;;;;;;;;;5068704;28;20056;-71
2024/01/28 14:19:31;;;;;;;11.32;3.92;;;;;;;;;;5068102;28;20078;-70
2024/01/28 14:21:58;;;;;;;10.90;3.10;;;;;;;;;;5067038;28;20047;-72
2024/01/28 14:24:25;;;;;;;7.68;2.33;;;;;;;;;;5060437;28;20067;-70
2024/01/28 14:26:51;;;;;;;8.45;2.35;;;;;;;;;;5065417;28;20048;-71